Time;durP1;ratioP1;P1;durP2;ratioP2;P2;SDS_P1;SDS_P2;PMS_P1;PMS_P2;Temp;Humidity;BMP_temperature;BMP_pressure;BME280_temperature;BME280_humidity;BME280_pressure;Samples;Min_cycle;Max_cycle;Signal;HPM_P1;HPM_P2
2022/06/05 00:02:31;;;;;;;8.57;6.70;;;;;;;24.35;41.46;102224.91;4995118;28;20046;-85
2022/06/05 00:05:30;;;;;;;8.02;6.72;;;;;;;24.31;41.41;102215.63;5004334;28;20034;-85
2022/06/05 00:08:10;;;;;;;8.67;6.80;;;;;;;24.33;41.34;102218.94;4986224;28;20061;-86
2022/06/05 00:10:42;;;;;;;;;;;;;;;24.32;41.51;102222.63;5007016;28;20751;-86
2022/06/05 00:13:21;;;;;;;10.57;6.68;;;;;;;24.19;41.55;102207.19;5002258;28;19925;-85
2022/06/05 00:15:46;;;;;;;9.68;7.13;;;;;;;24.29;41.51;102230.97;5004713;28;20100;-85
2022/06/05 00:18:12;;;;;;;11.38;7.05;;;;;;;24.30;41.50;102233.44;5007763;28;20065;-85
2022/06/05 00:20:41;;;;;;;9.90;7.18;;;;;;;24.25;41.79;102222.47;5006321;28;20042;-85
2022/06/05 00:23:06;;;;;;;10.15;7.35;;;;;;;24.29;41.52;102223.81;4997088;28;20033;-84
2022/06/05 00:25:54;;;;;;;7.78;6.38;;;;;;;24.28;41.65;102224.78;4989835;28;20026;-84
2022/06/05 00:28:35;;;;;;;11.75;6.97;;;;;;;24.24;41.45;102210.16;5007213;28;20077;-85
2022/06/05 00:31:09;;;;;;;9.52;6.97;;;;;;;24.27;41.63;102208.97;5006369;28;20038;-85
2022/06/05 00:33:38;;;;;;;10.63;7.40;;;;;;;24.19;41.63;102198.38;5011502;28;20030;-85
2022/06/05 00:36:23;;;;;;;10.57;7.20;;;;;;;24.18;41.52;102200.19;5003499;28;20030;-85
2022/06/05 00:39:01;;;;;;;10.70;6.70;;;;;;;24.23;41.54;102202.31;4992944;28;20415;-84
2022/06/05 00:41:39;;;;;;;11.43;6.65;;;;;;;24.23;41.64;102194.34;5002228;28;20026;-86
2022/06/05 00:44:06;;;;;;;9.02;6.43;;;;;;;24.20;41.66;102192.03;4999375;28;20609;-85
2022/06/05 00:46:36;;;;;;;10.30;6.75;;;;;;;24.02;41.72;102165.69;5009663;28;20045;-85
2022/06/05 00:49:02;;;;;;;10.40;6.50;;;;;;;24.03;41.79;102164.69;5007333;28;20065;-85
2022/06/05 00:51:28;;;;;;;10.05;6.93;;;;;;;24.08;41.76;102162.34;5009515;28;20100;-85
2022/06/05 00:53:53;;;;;;;9.77;6.68;;;;;;;24.15;41.70;102165.13;4975745;28;20143;-85
2022/06/05 00:56:19;;;;;;;10.57;6.97;;;;;;;24.09;41.48;102156.84;5005665;28;20076;-85
2022/06/05 00:58:45;;;;;;;12.98;7.00;;;;;;;24.16;41.61;102162.28;4997801;28;20045;-85
2022/06/05 01:01:10;;;;;;;10.65;6.88;;;;;;;24.15;41.61;102154.50;5007520;28;20072;-85
2022/06/05 01:03:36;;;;;;;11.43;6.90;;;;;;;24.14;41.65;102148.34;4997635;28;20069;-85
2022/06/05 01:06:02;;;;;;;12.23;6.85;;;;;;;24.10;41.76;102131.91;5006796;28;20671;-85
2022/06/05 01:08:28;;;;;;;13.13;7.15;;;;;;;24.15;41.68;102133.19;4981445;28;20064;-86
2022/06/05 01:11:12;;;;;;;10.00;6.47;;;;;;;24.15;41.81;102123.38;5004920;28;20766;-86
2022/06/05 01:14:12;;;;;;;9.45;6.28;;;;;;;23.96;41.85;102102.56;5007378;28;20084;-86
2022/06/05 01:16:44;;;;;;;9.82;7.20;;;;;;;24.11;41.68;102132.72;5006971;28;20045;-85
2022/06/05 01:19:29;;;;;;;8.35;6.88;;;;;;;24.05;41.83;102131.59;5005607;28;20092;-85
2022/06/05 01:22:27;;;;;;;10.43;6.53;;;;;;;24.05;41.80;102123.59;5009297;28;20480;-85
2022/06/05 01:25:12;;;;;;;9.75;6.68;;;;;;;24.06;41.72;102133.25;5009627;28;20044;-86
2022/06/05 01:27:41;;;;;;;13.25;7.25;;;;;;;23.99;41.77;102124.31;5008464;28;20057;-85
2022/06/05 01:30:19;;;;;;;8.93;6.80;;;;;;;23.98;41.68;102127.16;5008699;28;20709;-85
2022/06/05 01:33:25;;;;;;;9.95;6.63;;;;;;;24.00;41.91;102123.31;5007079;28;20389;-86
2022/06/05 01:36:02;;;;;;;9.05;6.25;;;;;;;23.96;41.63;102127.34;4953997;28;20122;-86
2022/06/05 01:38:41;;;;;;;10.27;6.00;;;;;;;24.03;41.88;102133.59;4933325;28;20090;-84
2022/06/05 01:41:17;;;;;;;10.40;6.72;;;;;;;23.92;41.65;102109.25;4983417;28;20061;-83
2022/06/05 01:43:50;;;;;;;10.07;6.82;;;;;;;24.01;41.65;102122.31;4999101;28;20042;-83
2022/06/05 01:46:42;;;;;;;8.88;6.95;;;;;;;24.02;41.84;102128.44;4982093;28;20097;-82
2022/06/05 01:49:18;;;;;;;10.85;6.90;;;;;;;23.92;41.82;102117.22;5001847;28;20095;-82
2022/06/05 01:51:59;;;;;;;9.90;7.05;;;;;;;23.98;41.78;102116.50;4999773;28;20085;-82
2022/06/05 01:54:41;;;;;;;9.43;6.72;;;;;;;23.85;41.83;102101.13;4948783;28;20041;-83
2022/06/05 01:57:11;;;;;;;8.13;6.38;;;;;;;23.98;41.89;102117.34;4966194;28;20037;-82
2022/06/05 01:59:43;;;;;;;11.48;7.03;;;;;;;23.93;41.99;102109.06;5004615;28;20482;-83
2022/06/05 02:02:16;;;;;;;9.57;6.93;;;;;;;23.98;41.98;102113.84;4987028;28;20034;-83
2022/06/05 02:04:52;;;;;;;9.93;6.75;;;;;;;23.83;41.91;102092.50;5002456;28;20108;-82
2022/06/05 02:07:28;;;;;;;10.45;6.55;;;;;;;23.90;41.97;102097.94;4997954;28;20056;-82
2022/06/05 02:10:20;;;;;;;12.70;6.28;;;;;;;23.85;41.87;102098.47;4984577;28;20038;-82
2022/06/05 02:12:47;;;;;;;9.32;6.50;;;;;;;23.95;41.99;102103.56;4996363;28;20737;-82
2022/06/05 02:15:12;;;;;;;9.30;6.82;;;;;;;23.93;42.04;102100.25;5003982;28;20117;-82
2022/06/05 02:17:38;;;;;;;12.52;7.05;;;;;;;23.92;41.95;102102.09;4983364;28;20577;-82
2022/06/05 02:20:07;;;;;;;10.10;7.22;;;;;;;23.90;42.08;102097.94;4997495;28;20045;-82
2022/06/05 02:22:52;;;;;;;9.77;7.10;;;;;;;23.90;42.04;102088.13;5001174;28;20550;-82
2022/06/05 02:25:22;;;;;;;10.70;6.95;;;;;;;23.88;42.00;102078.66;4984007;28;20427;-82
2022/06/05 02:27:48;;;;;;;;;;;;;;;23.91;42.04;102065.03;5003720;28;20038;-82
2022/06/05 02:30:15;;;;;;;10.07;6.63;;;;;;;23.72;41.92;102040.53;5000543;28;19925;-82
2022/06/05 02:33:02;;;;;;;8.35;6.68;;;;;;;23.81;42.11;102051.94;5002832;28;20022;-82
2022/06/05 02:35:35;;;;;;;10.70;7.07;;;;;;;23.81;42.15;102051.94;4999383;28;20394;-83
2022/06/05 02:38:17;;;;;;;11.00;6.82;;;;;;;23.85;42.06;102058.56;5002162;28;20096;-82
2022/06/05 02:40:53;;;;;;;13.48;7.05;;;;;;;23.83;41.94;102054.41;4963098;28;20053;-82
2022/06/05 02:43:31;;;;;;;12.57;8.02;;;;;;;23.86;42.15;102060.22;5001522;28;20053;-82
2022/06/05 02:46:16;;;;;;;8.70;6.57;;;;;;;23.83;41.93;102063.22;5005386;28;20555;-83
2022/06/05 02:49:12;;;;;;;10.35;6.55;;;;;;;23.80;42.00;102043.13;4997943;28;20032;-82
2022/06/05 02:51:41;;;;;;;10.75;7.55;;;;;;;23.76;42.20;102030.38;5001140;28;20040;-83
2022/06/05 02:54:07;;;;;;;11.18;6.95;;;;;;;23.85;42.15;102045.25;4986619;28;27719;-83
2022/06/05 02:56:33;;;;;;;10.30;6.88;;;;;;;23.67;42.18;102013.63;4985793;28;20045;-83
2022/06/05 02:59:01;;;;;;;10.98;7.35;;;;;;;23.79;42.06;102027.34;5005486;28;20032;-82
2022/06/05 03:04:12;;;;;;;8.55;6.80;;;;;;;23.80;42.13;102018.38;4999861;28;20072;-82
2022/06/05 03:06:40;;;;;;;13.90;7.35;;;;;;;23.78;42.25;102013.22;4999529;28;20038;-83
2022/06/05 03:09:07;;;;;;;11.88;7.25;;;;;;;23.80;42.21;102013.88;5001661;28;20147;-82
2022/06/05 03:11:33;;;;;;;13.20;7.25;;;;;;;23.79;42.18;102003.41;4988415;28;20551;-83
2022/06/05 03:13:58;;;;;;;9.55;6.50;;;;;;;23.76;42.19;101991.31;5002570;28;20060;-83
2022/06/05 03:16:25;;;;;;;9.20;6.38;;;;;;;23.71;42.08;101979.56;5001491;28;20065;-83
2022/06/05 03:18:51;;;;;;;9.10;6.20;;;;;;;23.75;42.11;101989.66;4998810;28;20092;-81
2022/06/05 03:21:16;;;;;;;10.02;6.68;;;;;;;23.69;42.19;101990.34;4997486;28;20467;-83
2022/06/05 03:23:42;;;;;;;10.77;7.68;;;;;;;23.76;42.12;102001.13;5003167;28;20038;-83
2022/06/05 03:26:11;;;;;;;10.25;6.80;;;;;;;23.76;42.19;101990.47;4969573;28;20132;-83
2022/06/05 03:28:37;;;;;;;;;;;;;;;23.76;42.29;101991.31;5001816;28;20660;-82
2022/06/05 03:31:08;;;;;;;9.02;6.18;;;;;;;23.74;42.40;101989.84;5004480;28;19917;-82
2022/06/05 03:33:34;;;;;;;9.80;6.72;;;;;;;23.73;42.31;101980.19;5003116;28;20129;-83
2022/06/05 03:36:00;;;;;;;9.05;7.13;;;;;;;23.72;42.37;101974.06;4997730;28;20145;-83
2022/06/05 03:38:26;;;;;;;10.05;6.65;;;;;;;23.64;42.47;101949.34;4997528;28;20058;-83
2022/06/05 03:40:51;;;;;;;9.18;6.28;;;;;;;23.57;42.38;101938.59;4988828;28;20037;-82
2022/06/05 03:43:17;;;;;;;11.88;7.22;;;;;;;23.74;42.13;101956.09;5002413;28;20637;-83
2022/06/05 03:45:43;;;;;;;10.57;7.05;;;;;;;23.73;42.21;101961.59;5002754;28;20057;-83
2022/06/05 03:48:09;;;;;;;9.38;6.50;;;;;;;23.61;42.36;101933.75;5005893;28;20026;-83
2022/06/05 03:50:39;;;;;;;10.35;6.53;;;;;;;23.61;42.20;101939.88;5004900;28;20041;-84
2022/06/05 03:53:05;;;;;;;11.23;6.90;;;;;;;23.61;42.25;101939.06;5002861;28;20025;-83
2022/06/05 03:55:30;;;;;;;11.68;7.28;;;;;;;23.68;42.37;101948.78;4984869;28;20100;-83
2022/06/05 03:57:56;;;;;;;11.52;7.13;;;;;;;23.70;42.28;101956.63;5001196;28;20088;-83
2022/06/05 04:00:21;;;;;;;14.10;8.15;;;;;;;23.64;42.36;101957.31;4998289;28;20061;-82
2022/06/05 04:02:47;;;;;;;12.75;6.78;;;;;;;23.57;42.33;101943.09;5001502;28;20039;-82
2022/06/05 04:05:16;;;;;;;10.60;7.05;;;;;;;23.69;42.39;101953.09;5001566;28;20765;-82
2022/06/05 04:07:41;;;;;;;11.90;7.35;;;;;;;23.69;42.37;101950.44;5001623;28;20121;-83
2022/06/05 04:10:11;;;;;;;10.07;7.18;;;;;;;23.62;42.56;101946.03;4995964;28;20040;-82
2022/06/05 04:12:36;;;;;;;11.38;6.93;;;;;;;23.67;42.44;101957.78;4963563;28;20372;-83
2022/06/05 04:15:02;;;;;;;12.35;7.55;;;;;;;23.61;42.44;101944.38;5003023;28;20033;-83
2022/06/05 04:17:27;;;;;;;10.13;7.00;;;;;;;23.68;42.50;101959.44;5006056;28;20096;-83
2022/06/05 04:19:53;;;;;;;9.13;6.88;;;;;;;23.70;42.32;101951.31;5004076;28;20493;-83
2022/06/05 04:22:19;;;;;;;12.90;7.03;;;;;;;23.69;42.37;101931.00;5003549;28;20038;-82
2022/06/05 04:24:45;;;;;;;11.43;6.78;;;;;;;23.65;42.50;101927.88;4984821;28;21082;-83
2022/06/05 04:27:11;;;;;;;12.40;7.50;;;;;;;23.68;42.44;101922.22;4975115;28;20049;-83
2022/06/05 04:29:37;;;;;;;11.68;7.25;;;;;;;23.67;42.36;101925.88;5002442;28;20048;-83
2022/06/05 04:32:03;;;;;;;14.13;6.85;;;;;;;23.68;42.36;101913.41;4984675;28;20500;-81
2022/06/05 04:34:29;;;;;;;9.57;6.70;;;;;;;23.67;42.56;101906.44;5002107;28;20045;-83
2022/06/05 04:36:54;;;;;;;9.90;6.40;;;;;;;23.57;42.46;101898.72;4983716;28;20476;-83
2022/06/05 04:39:20;;;;;;;9.25;7.10;;;;;;;23.48;42.40;101878.47;4971206;28;20144;-82
2022/06/05 04:41:46;;;;;;;9.73;7.30;;;;;;;23.62;42.42;101904.31;4988777;28;20046;-83
2022/06/05 04:44:14;;;;;;;9.05;6.53;;;;;;;23.68;42.52;101905.41;5003183;28;20053;-83
2022/06/05 04:46:40;;;;;;;10.85;7.53;;;;;;;23.50;42.51;101885.25;5001972;28;20490;-82
2022/06/05 04:49:08;;;;;;;11.55;7.80;;;;;;;23.67;42.39;101903.78;5009851;28;20030;-83
2022/06/05 04:51:36;;;;;;;11.68;6.40;;;;;;;23.57;42.60;101882.75;4970448;28;20049;-83
2022/06/05 04:54:03;;;;;;;11.48;7.28;;;;;;;23.65;42.68;101892.50;5007948;28;20463;-82
2022/06/05 04:56:30;;;;;;;15.23;7.75;;;;;;;23.63;42.34;101884.69;4953263;28;20120;-83
2022/06/05 04:58:56;;;;;;;10.73;6.55;;;;;;;23.58;42.44;101872.97;5003219;28;20053;-82
2022/06/05 05:01:34;;;;;;;12.88;7.75;;;;;;;23.54;42.54;101871.63;5002880;28;20068;-82
2022/06/05 05:04:02;;;;;;;10.40;7.43;;;;;;;23.61;42.62;101873.41;5003218;28;20038;-82
2022/06/05 05:06:30;;;;;;;10.20;6.73;;;;;;;23.63;42.47;101881.22;5001794;28;20125;-82
2022/06/05 05:08:56;;;;;;;10.10;6.65;;;;;;;23.64;42.54;101882.88;5007607;28;20045;-82
2022/06/05 05:11:22;;;;;;;11.48;6.75;;;;;;;23.68;42.68;101887.63;5005575;28;20046;-83
2022/06/05 05:13:48;;;;;;;10.45;6.95;;;;;;;23.67;42.52;101867.38;4986746;28;20045;-82
2022/06/05 05:16:15;;;;;;;11.27;7.10;;;;;;;23.60;42.64;101868.28;5002239;28;20037;-82
2022/06/05 05:18:40;;;;;;;10.98;6.78;;;;;;;23.62;42.45;101863.59;5000710;28;20034;-83
2022/06/05 05:21:15;;;;;;;9.98;7.15;;;;;;;23.68;42.55;101871.69;5001937;28;20504;-83
2022/06/05 05:23:42;;;;;;;11.70;7.10;;;;;;;23.66;42.64;101871.03;5002173;28;20502;-83
2022/06/05 05:26:17;;;;;;;9.48;6.90;;;;;;;23.60;42.58;101852.31;5000398;28;20033;-83
2022/06/05 05:28:43;;;;;;;14.25;7.13;;;;;;;23.67;42.62;101879.84;4989311;28;20116;-83
2022/06/05 05:31:12;;;;;;;9.57;7.28;;;;;;;23.67;42.73;101877.19;5005579;28;20062;-82
2022/06/05 05:33:39;;;;;;;13.35;7.70;;;;;;;23.59;42.74;101870.13;4999553;28;20034;-82
2022/06/05 05:36:06;;;;;;;11.77;7.32;;;;;;;23.57;42.98;101864.16;5003792;28;20042;-82
2022/06/05 05:38:32;;;;;;;8.48;6.65;;;;;;;23.68;42.92;101878.84;4998068;28;20057;-81
2022/06/05 05:43:41;;;;;;;11.07;7.28;;;;;;;23.66;42.92;101881.66;4955851;28;20045;-81
2022/06/05 05:46:11;;;;;;;11.45;7.60;;;;;;;23.66;42.56;101883.50;4996545;28;20763;-81
2022/06/05 05:48:38;;;;;;;13.73;7.63;;;;;;;23.67;42.96;101885.97;5004454;28;20041;-81
2022/06/05 05:51:10;;;;;;;15.07;7.72;;;;;;;23.48;42.80;101858.03;5002036;28;20050;-82
2022/06/05 05:53:36;;;;;;;11.57;7.07;;;;;;;23.68;42.71;101886.81;5002597;28;20493;-82
2022/06/05 05:56:09;;;;;;;11.90;7.95;;;;;;;23.56;42.87;101874.94;4979804;28;20043;-82
2022/06/05 05:58:36;;;;;;;13.30;7.95;;;;;;;23.58;42.68;101875.63;4971473;28;20103;-82
2022/06/05 06:01:03;;;;;;;14.40;6.93;;;;;;;23.68;42.70;101892.13;4996866;28;20045;-82
2022/06/05 06:03:29;;;;;;;12.35;7.78;;;;;;;23.67;42.66;101893.97;5001666;28;20046;-82
2022/06/05 06:05:57;;;;;;;10.68;7.68;;;;;;;23.61;42.86;101880.56;4997610;28;20385;-81
2022/06/05 06:08:22;;;;;;;11.13;7.45;;;;;;;23.57;42.94;101879.28;4991234;28;20124;-82
2022/06/05 06:10:48;;;;;;;14.75;8.07;;;;;;;23.69;42.69;101894.59;4999526;28;20582;-82
2022/06/05 06:13:13;;;;;;;12.68;7.90;;;;;;;23.65;42.77;101885.34;4971833;28;20673;-82
2022/06/05 06:15:39;;;;;;;11.52;7.95;;;;;;;23.68;43.01;101882.31;4996979;28;20477;-82
2022/06/05 06:18:04;;;;;;;13.98;7.93;;;;;;;23.64;42.90;101872.22;5000941;28;20137;-82
2022/06/05 06:20:30;;;;;;;11.90;7.72;;;;;;;23.69;42.95;101875.16;4997457;28;20629;-82
2022/06/05 06:22:55;;;;;;;11.50;7.65;;;;;;;23.63;42.77;101862.59;4971342;28;20064;-82
2022/06/05 06:25:21;;;;;;;10.40;7.65;;;;;;;23.71;42.80;101870.53;4997263;28;20052;-83
2022/06/05 06:27:46;;;;;;;14.65;7.60;;;;;;;23.64;42.76;101862.41;5004295;28;20072;-82
2022/06/05 06:30:12;;;;;;;11.60;7.28;;;;;;;23.69;42.97;101868.00;4993245;28;20092;-82
2022/06/05 06:32:37;;;;;;;14.35;7.15;;;;;;;23.67;42.70;101854.06;5003236;28;20201;-81
2022/06/05 06:35:03;;;;;;;11.93;7.30;;;;;;;23.70;42.83;101863.56;4982369;28;20064;-81
2022/06/05 06:37:29;;;;;;;12.77;7.57;;;;;;;23.70;42.91;101868.88;5003623;28;20144;-82
2022/06/05 06:39:55;;;;;;;13.45;7.93;;;;;;;23.66;42.99;101864.91;5003621;28;20065;-80
2022/06/05 06:42:20;;;;;;;11.60;8.20;;;;;;;23.50;42.96;101834.75;4996482;28;20112;-82
2022/06/05 06:44:48;;;;;;;11.70;7.93;;;;;;;23.65;42.93;101860.59;4990632;28;20033;-82
2022/06/05 06:47:14;;;;;;;12.93;8.57;;;;;;;23.71;43.03;101866.03;5005795;28;20046;-82
2022/06/05 06:49:39;;;;;;;11.63;7.57;;;;;;;23.66;43.10;101848.94;5006431;28;20045;-82
2022/06/05 06:52:05;;;;;;;13.82;8.20;;;;;;;23.71;43.07;101854.56;5005673;28;20052;-82
2022/06/05 06:54:31;;;;;;;10.88;7.25;;;;;;;23.63;43.02;101842.16;4985560;28;20038;-83
2022/06/05 06:56:57;;;;;;;11.20;7.93;;;;;;;23.72;43.04;101854.38;4998470;28;20050;-82
2022/06/05 06:59:24;;;;;;;12.57;7.57;;;;;;;23.66;43.19;101841.78;4983190;28;20084;-83
2022/06/05 07:01:50;;;;;;;11.85;7.90;;;;;;;23.68;43.09;101836.28;5001153;28;20042;-83
2022/06/05 07:04:17;;;;;;;11.07;7.70;;;;;;;23.64;43.13;101835.81;5000568;28;21898;-81
2022/06/05 07:06:43;;;;;;;13.70;8.70;;;;;;;23.67;43.06;101829.31;4998834;28;20044;-83
2022/06/05 07:09:14;;;;;;;13.85;8.43;;;;;;;23.72;43.21;101841.09;4980473;28;20141;-82
2022/06/05 07:11:43;;;;;;;13.85;7.65;;;;;;;23.75;42.98;101842.56;4996326;28;20112;-83
2022/06/05 07:14:09;;;;;;;12.95;7.97;;;;;;;23.70;43.11;101826.31;4955297;28;20060;-82
2022/06/05 07:16:36;;;;;;;12.20;7.50;;;;;;;23.75;43.23;101832.75;4998214;28;20041;-82
2022/06/05 07:19:01;;;;;;;14.00;7.97;;;;;;;23.78;43.28;101827.06;4997441;28;20042;-83
2022/06/05 07:21:27;;;;;;;13.50;7.78;;;;;;;23.77;43.29;101830.72;4993812;28;20042;-82
2022/06/05 07:23:54;;;;;;;12.63;7.88;;;;;;;23.77;43.25;101824.56;4981883;28;20038;-81
2022/06/05 07:26:21;;;;;;;11.40;7.75;;;;;;;23.69;43.23;101806.84;4996351;28;20060;-81
2022/06/05 07:28:47;;;;;;;13.13;7.95;;;;;;;23.80;43.35;101819.72;4984046;28;20062;-82
2022/06/05 07:31:14;;;;;;;13.75;7.60;;;;;;;23.81;43.44;101812.56;4984209;28;20125;-82
2022/06/05 07:33:41;;;;;;;14.93;7.35;;;;;;;23.81;43.39;101809.91;5003799;28;20510;-81
2022/06/05 07:36:09;;;;;;;13.18;8.02;;;;;;;23.67;43.44;101786.78;5004364;28;20125;-81
2022/06/05 07:38:36;;;;;;;13.98;8.70;;;;;;;23.78;43.19;101795.13;5002617;28;20050;-80
2022/06/05 07:41:04;;;;;;;10.95;7.60;;;;;;;23.78;43.27;101800.44;5002546;28;20305;-81
2022/06/05 07:43:29;;;;;;;10.48;8.38;;;;;;;23.86;43.30;101810.16;4998097;28;20060;-82
2022/06/05 07:45:57;;;;;;;12.48;7.55;;;;;;;23.86;43.39;101799.53;4980628;28;20034;-83
2022/06/05 07:48:23;;;;;;;11.98;7.80;;;;;;;23.86;43.31;101801.34;5007136;28;20607;-83
2022/06/05 07:56:29;;;;;;;12.93;8.38;;;;;;;23.69;43.45;101774.13;5004651;28;20668;-81
2022/06/05 07:58:54;;;;;;;21.42;7.82;;;;;;;23.90;43.43;101798.19;4981827;28;20057;-81
2022/06/05 08:01:20;;;;;;;12.75;7.95;;;;;;;23.90;43.54;101792.03;4985173;28;20511;-82
2022/06/05 08:03:45;;;;;;;16.63;7.78;;;;;;;23.92;43.31;101792.66;5002939;28;21533;-81
2022/06/05 08:06:11;;;;;;;13.05;8.30;;;;;;;23.90;43.46;101790.19;4981867;28;20053;-81
2022/06/05 08:08:36;;;;;;;13.18;8.40;;;;;;;23.71;43.33;101743.69;4998009;28;20046;-82
2022/06/05 08:11:05;;;;;;;12.65;8.55;;;;;;;23.91;43.11;101780.38;5006383;28;20049;-82
2022/06/05 08:13:31;;;;;;;21.35;9.38;;;;;;;23.87;43.43;101768.44;4983839;28;20626;-83
2022/06/05 08:15:56;;;;;;;11.48;8.57;;;;;;;23.71;43.41;101735.72;4992757;28;20049;-83
2022/06/05 08:18:22;;;;;;;13.43;9.00;;;;;;;23.90;43.13;101760.09;5004378;28;20034;-82
2022/06/05 08:20:49;;;;;;;14.00;7.88;;;;;;;23.91;43.28;101767.06;5005904;28;20042;-82
2022/06/05 08:23:15;;;;;;;18.27;8.40;;;;;;;23.88;43.06;101756.78;5002172;28;20054;-82
2022/06/05 08:25:40;;;;;;;11.43;8.38;;;;;;;23.90;43.08;101746.81;5005607;28;20052;-83
2022/06/05 08:28:06;;;;;;;12.60;8.32;;;;;;;23.95;43.23;101757.72;5006963;28;20040;-82
2022/06/05 08:30:32;;;;;;;12.60;8.00;;;;;;;23.90;43.28;101739.66;4991449;28;20548;-83
2022/06/05 08:32:57;;;;;;;14.77;8.18;;;;;;;23.94;43.16;101735.59;5006078;28;20041;-82
2022/06/05 08:35:23;;;;;;;12.25;7.88;;;;;;;23.96;43.16;101733.59;5011189;28;20034;-84
2022/06/05 08:43:42;;;;;;;11.52;8.18;;;;;;;23.98;43.40;101717.44;5003039;28;20088;-83
2022/06/05 08:46:15;;;;;;;12.52;8.23;;;;;;;23.98;43.70;101712.94;4992751;28;20124;-83
2022/06/05 08:49:05;;;;;;;17.90;9.52;;;;;;;23.87;43.58;101694.78;5001495;28;20042;-83
2022/06/05 08:51:41;;;;;;;14.60;8.52;;;;;;;23.68;43.20;101656.28;5003502;28;20034;-83
2022/06/05 08:54:15;;;;;;;12.98;8.80;;;;;;;23.77;43.34;101659.69;5002834;28;20046;-83
2022/06/05 08:56:46;;;;;;;13.95;8.63;;;;;;;23.85;43.21;101667.53;4998256;28;20053;-83
2022/06/05 08:59:23;;;;;;;16.02;9.48;;;;;;;24.01;43.44;101695.78;4987306;28;20674;-83
2022/06/05 09:01:55;;;;;;;15.68;9.15;;;;;;;23.98;43.49;101691.66;5003473;28;20041;-83
2022/06/05 09:04:38;;;;;;;14.57;8.52;;;;;;;23.99;43.42;101680.00;5003061;28;20476;-84
2022/06/05 09:07:09;;;;;;;15.63;9.05;;;;;;;23.93;43.55;101664.78;5004236;28;20048;-83
2022/06/05 09:09:47;;;;;;;13.77;8.95;;;;;;;24.00;43.58;101662.19;5003316;28;20042;-83
2022/06/05 09:12:26;;;;;;;13.80;8.27;;;;;;;24.00;43.66;101668.34;5003146;28;20104;-83
2022/06/05 09:15:05;;;;;;;12.48;8.48;;;;;;;24.01;43.44;101663.84;4987678;28;20049;-84
2022/06/05 09:17:32;;;;;;;11.68;7.97;;;;;;;23.97;43.55;101659.91;5006694;28;20399;-84
2022/06/05 09:19:58;;;;;;;19.02;8.90;;;;;;;23.99;43.49;101660.56;4985025;28;20034;-84
2022/06/05 09:22:30;;;;;;;13.40;8.70;;;;;;;24.02;43.56;101646.88;5014665;28;20429;-84
2022/06/05 09:25:18;;;;;;;13.48;8.05;;;;;;;23.96;43.51;101634.31;4991461;28;20125;-84
2022/06/05 09:28:24;;;;;;;12.57;8.52;;;;;;;24.03;43.56;101629.91;5002075;28;20045;-83
2022/06/05 09:31:20;;;;;;;13.82;8.15;;;;;;;24.00;43.78;101633.75;4995278;28;20068;-83
2022/06/05 09:33:48;;;;;;;16.50;9.00;;;;;;;24.03;43.75;101629.91;4990436;28;20076;-84
2022/06/05 09:36:18;;;;;;;13.82;8.65;;;;;;;24.05;43.62;101630.53;5004477;28;21394;-83
2022/06/05 09:38:46;;;;;;;;;;;;;;;24.04;43.89;101626.22;5006755;28;20080;-83
2022/06/05 09:41:12;;;;;;;15.77;8.93;;;;;;;24.05;43.87;101626.03;5004484;28;19988;-84
2022/06/05 09:43:49;;;;;;;12.10;8.63;;;;;;;24.05;43.81;101625.19;5004126;28;20042;-83
2022/06/05 09:46:34;;;;;;;11.40;7.80;;;;;;;24.04;43.79;101612.91;4991957;28;20040;-83
2022/06/05 09:49:14;;;;;;;14.95;8.82;;;;;;;24.06;43.78;101626.88;5004330;28;20044;-83
2022/06/05 09:51:42;;;;;;;13.80;9.05;;;;;;;24.05;44.00;101620.72;5005967;28;20038;-83
2022/06/05 09:54:30;;;;;;;14.82;8.40;;;;;;;24.03;44.07;101605.94;5000751;28;20072;-83
2022/06/05 10:00:00;;;;;;;13.63;8.57;;;;;;;24.01;44.06;101584.84;4997845;28;20046;-83
2022/06/05 10:02:27;;;;;;;13.03;7.77;;;;;;;24.08;43.99;101598.25;5008897;28;20464;-83
2022/06/05 10:04:53;;;;;;;17.55;9.70;;;;;;;24.07;43.83;101596.59;5009069;28;20042;-83
2022/06/05 10:07:28;;;;;;;12.52;8.50;;;;;;;24.08;43.65;101587.59;5005678;28;20050;-83
2022/06/05 10:09:54;;;;;;;12.18;9.02;;;;;;;24.01;43.64;101576.06;4999822;28;20084;-83
2022/06/05 10:12:23;;;;;;;12.10;8.73;;;;;;;24.07;44.32;101585.97;4983887;28;20021;-83
2022/06/05 10:14:51;;;;;;;13.60;9.48;;;;;;;24.09;44.44;101583.94;5002812;28;20128;-82
2022/06/05 10:17:35;;;;;;;13.70;8.70;;;;;;;24.09;44.32;101595.38;4973435;28;20050;-83
2022/06/05 10:20:17;;;;;;;12.20;8.73;;;;;;;24.11;44.51;101597.88;5001879;28;20572;-83
2022/06/05 10:22:58;;;;;;;12.90;8.65;;;;;;;24.03;44.31;101584.66;4998394;28;20538;-82
2022/06/05 10:25:29;;;;;;;17.27;10.40;;;;;;;24.01;44.61;101582.19;4998249;28;20045;-82
2022/06/05 10:27:59;;;;;;;17.10;9.43;;;;;;;24.09;44.47;101594.56;4999080;28;20076;-83
2022/06/05 10:30:33;;;;;;;20.55;9.55;;;;;;;24.11;44.45;101595.19;4987888;28;20037;-82
2022/06/05 10:33:54;;;;;;;14.73;9.10;;;;;;;24.14;44.34;101596.66;5000286;28;20076;-82
2022/06/05 10:36:29;;;;;;;11.15;8.95;;;;;;;24.11;44.53;101588.03;4963563;28;20035;-83
2022/06/05 10:38:57;;;;;;;17.88;10.10;;;;;;;24.14;44.30;101588.66;4966027;28;20249;-83
2022/06/05 10:41:45;;;;;;;13.90;9.05;;;;;;;24.14;44.40;101589.50;4979769;28;20535;-83
2022/06/05 10:44:14;;;;;;;16.88;9.35;;;;;;;24.14;44.56;101583.34;5004428;28;20042;-83
2022/06/05 10:46:47;;;;;;;14.85;9.88;;;;;;;24.14;44.43;101581.50;4990049;28;20542;-82
2022/06/05 10:49:20;;;;;;;12.88;9.10;;;;;;;23.96;44.28;101549.19;5009622;28;20050;-83
2022/06/05 10:52:13;;;;;;;14.27;9.90;;;;;;;24.14;44.72;101575.38;5000181;28;20124;-83
2022/06/05 10:54:57;;;;;;;14.25;9.45;;;;;;;24.14;44.46;101573.53;4974387;28;20050;-82
2022/06/05 10:57:35;;;;;;;14.07;9.43;;;;;;;24.10;44.33;101556.31;4999678;28;20816;-83
2022/06/05 11:00:24;;;;;;;14.93;10.32;;;;;;;24.15;44.40;101569.84;4999438;28;20041;-83
2022/06/05 11:03:16;;;;;;;13.27;9.83;;;;;;;24.17;44.24;101553.69;4988412;28;20042;-84
2022/06/05 11:05:55;;;;;;;13.63;9.70;;;;;;;24.04;44.40;101531.25;5006204;28;20073;-83
2022/06/05 11:08:36;;;;;;;13.55;9.25;;;;;;;24.18;44.22;101550.00;5001432;28;20534;-83
2022/06/05 11:14:29;;;;;;;12.85;9.85;;;;;;;24.17;44.26;101541.22;4970055;28;20069;-83
2022/06/05 11:17:31;;;;;;;11.52;8.98;;;;;;;24.16;44.23;101530.75;4988025;28;20065;-84
2022/06/05 11:20:34;;;;;;;14.10;9.70;;;;;;;24.09;44.30;101523.56;5002924;28;20068;-83
2022/06/05 11:23:03;;;;;;;14.15;9.70;;;;;;;24.14;44.23;101525.63;4980805;28;20054;-84
2022/06/05 11:25:36;;;;;;;13.48;9.60;;;;;;;24.17;44.20;101525.25;4999286;28;20029;-84
2022/06/05 11:28:41;;;;;;;15.05;9.93;;;;;;;24.19;44.06;101519.72;4999988;28;20100;-83
2022/06/05 11:31:42;;;;;;;17.80;10.25;;;;;;;24.19;44.25;101517.88;5003642;28;20192;-83
2022/06/05 11:34:35;;;;;;;13.73;10.15;;;;;;;24.19;44.36;101517.06;5003197;28;20137;-83
2022/06/05 11:37:16;;;;;;;13.70;9.85;;;;;;;24.20;44.39;101500.09;5001758;28;20062;-83
2022/06/05 11:40:00;;;;;;;13.73;9.40;;;;;;;24.19;44.37;101504.59;5003618;28;20107;-83
2022/06/05 11:42:28;;;;;;;14.90;9.68;;;;;;;24.19;44.28;101496.59;5003975;28;20092;-84
2022/06/05 11:45:18;;;;;;;14.88;10.13;;;;;;;24.19;44.49;101493.13;5000739;28;20068;-84
2022/06/05 11:47:54;;;;;;;13.80;9.57;;;;;;;24.06;44.45;101468.06;4984455;28;20041;-83
2022/06/05 11:50:48;;;;;;;12.52;9.43;;;;;;;24.18;44.41;101486.97;5001065;28;20045;-84
2022/06/05 11:53:40;;;;;;;14.80;10.55;;;;;;;24.19;44.72;101477.16;5000222;28;20539;-84
2022/06/05 11:56:25;;;;;;;14.30;9.85;;;;;;;24.16;44.32;101472.22;4983070;28;20026;-84
2022/06/05 11:59:11;;;;;;;13.75;10.38;;;;;;;24.21;44.32;101467.13;5000019;28;20038;-84
2022/06/05 12:01:44;;;;;;;13.18;9.60;;;;;;;24.09;44.53;101462.34;4986925;28;21084;-83
2022/06/05 12:04:33;;;;;;;13.18;10.35;;;;;;;24.12;44.45;101461.16;4988799;28;20065;-83
2022/06/05 12:07:03;;;;;;;15.05;10.95;;;;;;;24.21;44.48;101477.78;5000899;28;20046;-84